createdAt,value
2022-08-20T00:00:14.847Z,19.83
2022-08-20T00:05:27.001Z,19.65
2022-08-20T00:10:34.633Z,19.59
2022-08-20T00:15:39.623Z,19.62
2022-08-20T00:20:48.196Z,19.91
2022-08-20T00:25:54.426Z,20.06
2022-08-20T00:30:58.431Z,20.02
2022-08-20T00:36:06.654Z,19.80
2022-08-20T00:41:15.169Z,19.80
2022-08-20T00:46:22.142Z,19.65
2022-08-20T00:51:38.305Z,19.82
2022-08-20T00:56:45.882Z,19.85
2022-08-20T01:01:55.288Z,19.86
2022-08-20T01:07:02.163Z,19.76
2022-08-20T01:12:10.649Z,19.70
2022-08-20T01:17:18.229Z,19.77
2022-08-20T01:22:50.859Z,19.72
2022-08-20T01:27:57.373Z,19.61
2022-08-20T01:33:03.108Z,19.57
2022-08-20T01:38:07.606Z,19.58
2022-08-20T01:43:13.428Z,19.55
2022-08-20T01:48:19.618Z,19.57
2022-08-20T01:53:30.012Z,19.38
2022-08-20T01:58:39.268Z,19.37
2022-08-20T02:03:44.779Z,19.38
2022-08-20T02:08:48.869Z,19.31
2022-08-20T02:13:55.583Z,19.30
2022-08-20T02:19:04.739Z,19.13
2022-08-20T02:24:09.011Z,19.25
2022-08-20T02:29:16.924Z,19.37
2022-08-20T02:34:22.663Z,19.33
2022-08-20T02:39:27.948Z,19.23
2022-08-20T02:44:33.743Z,19.13
2022-08-20T02:49:37.714Z,19.13
2022-08-20T02:54:41.714Z,19.10
2022-08-20T02:59:47.635Z,19.17
2022-08-20T03:04:51.584Z,19.21
2022-08-20T03:09:55.569Z,19.20
2022-08-20T03:15:01.001Z,19.12
2022-08-20T03:20:07.127Z,19.13
2022-08-20T03:25:11.746Z,19.00
2022-08-20T03:30:19.447Z,19.10
2022-08-20T03:35:25.380Z,18.84
2022-08-20T03:40:32.088Z,18.59
2022-08-20T03:45:39.522Z,18.36
2022-08-20T03:50:43.643Z,18.29
2022-08-20T03:55:53.709Z,18.39
2022-08-20T04:00:59.854Z,18.42
2022-08-20T04:06:04.434Z,18.49
2022-08-20T04:11:09.069Z,18.55
2022-08-20T04:16:14.832Z,18.55
2022-08-20T04:21:20.114Z,18.65
2022-08-20T04:26:24.102Z,18.84
2022-08-20T04:31:33.948Z,19.03
2022-08-20T04:36:38.210Z,19.36
2022-08-20T04:41:42.816Z,19.70
2022-08-20T04:46:48.112Z,19.98
2022-08-20T04:51:52.117Z,20.20
2022-08-20T04:56:56.077Z,20.47
2022-08-20T05:02:02.718Z,20.76
2022-08-20T05:07:06.692Z,21.03
2022-08-20T05:12:10.898Z,21.21
2022-08-20T05:17:18.259Z,21.55
2022-08-20T05:22:23.038Z,21.93
2022-08-20T05:27:28.069Z,22.41
2022-08-20T05:32:33.512Z,22.77
2022-08-20T05:37:48.500Z,22.54
2022-08-20T05:42:53.862Z,22.92
2022-08-20T05:47:59.483Z,23.12
2022-08-20T05:53:08.030Z,23.25
2022-08-20T05:58:18.660Z,23.45
2022-08-20T06:03:41.906Z,23.66
2022-08-20T06:08:45.889Z,24.15
2022-08-20T06:13:49.868Z,24.29
2022-08-20T06:18:55.295Z,24.46
2022-08-20T06:24:02.345Z,24.81
2022-08-20T06:29:07.768Z,25.42
2022-08-20T06:34:13.160Z,26.14
2022-08-20T06:39:17.291Z,26.40
2022-08-20T06:44:21.345Z,26.85
2022-08-20T06:49:26.626Z,27.19
2022-08-20T06:54:34.393Z,27.78
2022-08-20T06:59:38.474Z,27.82
2022-08-20T07:04:44.620Z,28.18
2022-08-20T07:09:48.747Z,28.46
2022-08-20T07:14:52.834Z,28.82
2022-08-20T07:19:58.499Z,29.11
2022-08-20T07:25:03.004Z,29.11
2022-08-20T07:30:27.100Z,29.70
2022-08-20T07:35:32.560Z,29.82
2022-08-20T07:40:37.058Z,29.75
2022-08-20T07:45:41.054Z,29.42
2022-08-20T07:50:53.541Z,29.93
2022-08-20T07:55:59.575Z,29.76
2022-08-20T08:01:03.916Z,30.85
2022-08-20T08:06:10.485Z,30.69
2022-08-20T08:11:19.527Z,30.46
2022-08-20T08:16:23.779Z,30.78
2022-08-20T08:21:30.139Z,30.58
2022-08-20T08:26:34.231Z,30.60
2022-08-20T08:31:38.214Z,30.61
2022-08-20T08:36:44.280Z,30.12
2022-08-20T08:41:51.274Z,30.36
2022-08-20T08:46:57.946Z,30.51
2022-08-20T08:52:07.666Z,30.81
2022-08-20T08:57:12.172Z,31.23
2022-08-20T09:02:21.597Z,31.92
2022-08-20T09:07:31.656Z,30.45
2022-08-20T09:12:35.719Z,30.42
2022-08-20T09:17:40.176Z,31.06
2022-08-20T09:22:45.561Z,31.38
2022-08-20T09:27:49.632Z,31.60
2022-08-20T09:32:55.231Z,31.57
2022-08-20T09:38:00.737Z,31.56
2022-08-20T09:43:06.847Z,32.30
2022-08-20T09:48:10.849Z,32.31
2022-08-20T09:53:17.659Z,33.91
2022-08-20T09:58:25.713Z,33.01
2022-08-20T10:03:29.668Z,31.83
2022-08-20T10:08:36.258Z,33.36
2022-08-20T10:13:40.327Z,34.45
2022-08-20T10:18:44.546Z,35.25
2022-08-20T10:23:51.390Z,33.92
2022-08-20T10:28:55.380Z,33.74
2022-08-20T10:34:00.884Z,33.47
2022-08-20T10:39:06.307Z,33.31
2022-08-20T10:44:10.528Z,34.40
2022-08-20T10:49:15.804Z,33.81
2022-08-20T10:54:21.224Z,34.21
2022-08-20T10:59:25.231Z,34.18
2022-08-20T11:04:29.152Z,34.87
2022-08-20T11:09:34.518Z,35.50
2022-08-20T11:14:38.696Z,34.03
2022-08-20T11:19:44.339Z,33.65
2022-08-20T11:24:49.443Z,34.59
2022-08-20T11:29:53.729Z,34.44
2022-08-20T11:34:57.708Z,33.51
2022-08-20T11:40:03.340Z,32.06
2022-08-20T11:45:08.313Z,32.25
2022-08-20T11:50:16.111Z,32.32
2022-08-20T11:55:30.049Z,31.92
2022-08-20T12:00:36.866Z,31.79
2022-08-20T12:05:42.372Z,31.98
2022-08-20T12:10:47.718Z,31.70
2022-08-20T12:15:51.689Z,31.37
2022-08-20T12:20:55.835Z,31.22
2022-08-20T12:26:03.300Z,31.30
2022-08-20T12:31:07.537Z,31.33
2022-08-20T12:36:11.544Z,30.80
2022-08-20T12:41:16.903Z,30.65
2022-08-20T12:46:20.855Z,30.61
2022-08-20T12:51:24.765Z,30.69
2022-08-20T12:56:30.122Z,30.70
2022-08-20T13:01:34.117Z,30.63
2022-08-20T13:06:38.152Z,30.52
2022-08-20T13:11:43.747Z,30.43
2022-08-20T13:16:47.828Z,30.08
2022-08-20T13:21:57.933Z,29.76
2022-08-20T13:27:08.495Z,29.76
2022-08-20T13:32:12.702Z,29.55
2022-08-20T13:37:23.129Z,29.41
2022-08-20T13:42:30.567Z,29.46
2022-08-20T13:47:37.448Z,29.92
2022-08-20T13:52:42.675Z,30.22
2022-08-20T13:57:49.203Z,29.88
2022-08-20T14:02:53.325Z,29.32
2022-08-20T14:07:57.841Z,28.87
2022-08-20T14:13:04.075Z,28.65
2022-08-20T14:18:07.934Z,28.47
2022-08-20T14:23:12.672Z,28.32
2022-08-20T14:28:20.414Z,28.30
2022-08-20T14:33:24.935Z,28.33
2022-08-20T14:38:29.064Z,28.12
2022-08-20T14:43:34.369Z,27.96
2022-08-20T14:48:38.376Z,27.73
2022-08-20T14:53:42.444Z,27.46
2022-08-20T14:58:47.862Z,27.31
2022-08-20T15:03:51.855Z,26.71
2022-08-20T15:08:57.221Z,26.47
2022-08-20T15:14:02.571Z,26.56
2022-08-20T15:19:07.230Z,26.49
2022-08-20T15:24:18.919Z,26.52
2022-08-20T15:29:24.999Z,26.51
2022-08-20T15:34:28.957Z,26.50
2022-08-20T15:39:33.093Z,26.30
2022-08-20T15:44:41.060Z,26.00
2022-08-20T15:49:45.650Z,25.72
2022-08-20T15:54:54.964Z,25.24
2022-08-20T16:00:11.587Z,25.07
2022-08-20T16:05:24.507Z,24.81
2022-08-20T16:10:37.380Z,24.60
2022-08-20T16:15:49.328Z,24.57
2022-08-20T16:20:56.918Z,24.48
2022-08-20T16:26:24.518Z,24.45
2022-08-20T16:31:40.964Z,24.53
2022-08-20T16:37:03.040Z,24.70
2022-08-20T16:42:10.328Z,24.86
2022-08-20T16:47:18.319Z,24.65
2022-08-20T16:52:22.177Z,24.55
2022-08-20T16:57:28.743Z,24.61
2022-08-20T17:02:34.126Z,24.69
2022-08-20T17:07:46.198Z,24.46
2022-08-20T17:12:59.528Z,24.16
2022-08-20T17:23:55.258Z,22.32
2022-08-20T17:29:03.731Z,21.72
2022-08-20T17:34:14.926Z,21.23
2022-08-20T17:39:21.765Z,20.95
2022-08-20T17:44:29.560Z,20.67
2022-08-20T17:49:38.440Z,20.49
2022-08-20T17:54:46.488Z,20.43
2022-08-20T18:00:02.357Z,20.13
2022-08-20T18:05:13.951Z,19.66
2022-08-20T18:10:24.901Z,19.31
2022-08-20T18:15:33.140Z,19.09
2022-08-20T18:21:07.349Z,18.89
2022-08-20T18:26:15.828Z,18.68
2022-08-20T18:31:29.736Z,18.58
2022-08-20T18:36:34.516Z,18.51
2022-08-20T18:41:42.277Z,18.84
2022-08-20T18:47:03.138Z,18.56
2022-08-20T18:52:13.110Z,18.92
2022-08-20T18:57:24.183Z,18.96
2022-08-20T19:02:32.598Z,18.95
2022-08-20T19:07:48.015Z,18.66
2022-08-20T19:13:29.156Z,18.55
2022-08-20T19:18:40.457Z,18.41
2022-08-20T19:23:51.175Z,18.21
2022-08-20T19:29:00.328Z,18.11
2022-08-20T19:34:22.047Z,17.99
2022-08-20T19:39:28.628Z,17.94
2022-08-20T19:44:40.671Z,17.91
2022-08-20T19:49:54.815Z,18.01
2022-08-20T19:55:03.649Z,17.79
2022-08-20T20:00:13.396Z,17.82
2022-08-20T20:05:18.458Z,17.70
2022-08-20T20:10:32.274Z,17.78
2022-08-20T20:15:40.214Z,17.99
2022-08-20T20:20:55.061Z,18.00
2022-08-20T20:26:03.330Z,17.91
2022-08-20T20:31:10.516Z,17.77
2022-08-20T20:36:15.935Z,17.62
2022-08-20T20:41:23.424Z,17.78
2022-08-20T20:46:30.643Z,18.07
2022-08-20T20:51:37.466Z,17.81
2022-08-20T20:56:43.975Z,17.35
2022-08-20T21:01:50.696Z,17.26
2022-08-20T21:06:57.322Z,17.14
2022-08-20T21:12:01.436Z,17.13
2022-08-20T21:17:10.555Z,17.11
2022-08-20T21:22:14.621Z,17.06
2022-08-20T21:27:22.143Z,17.00
2022-08-20T21:32:27.630Z,17.00
2022-08-20T21:37:31.831Z,16.99
2022-08-20T21:42:36.908Z,16.90
2022-08-20T21:47:43.176Z,16.98
2022-08-20T21:52:59.298Z,16.88
2022-08-20T21:58:05.889Z,16.89
2022-08-20T22:03:14.194Z,16.88
2022-08-20T22:08:19.054Z,16.95
2022-08-20T22:13:23.960Z,16.82
2022-08-20T22:18:29.457Z,16.87
2022-08-20T22:23:33.570Z,16.84
2022-08-20T22:28:38.170Z,16.70
2022-08-20T22:33:43.745Z,16.54
2022-08-20T22:38:47.904Z,16.59
2022-08-20T22:43:58.763Z,16.54
2022-08-20T22:49:04.512Z,16.39
2022-08-20T22:54:11.555Z,16.34
2022-08-20T22:59:16.327Z,16.11
2022-08-20T23:04:27.868Z,16.15
2022-08-20T23:09:32.639Z,16.11
2022-08-20T23:14:36.744Z,16.19
2022-08-20T23:19:43.315Z,16.33
2022-08-20T23:24:47.696Z,16.07
2022-08-20T23:29:51.864Z,16.09
2022-08-20T23:34:57.216Z,15.99
2022-08-20T23:40:01.199Z,16.14
2022-08-20T23:45:06.812Z,16.06
2022-08-20T23:50:14.333Z,16.06
2022-08-20T23:55:18.527Z,15.96
